Charlotte Douglas International Airport
KCLT : now visible

Aeroporto :











RITROVATECI SU...

 
LOGIN :

Iscrizione | Disclaimer

   EN    FR    IT 

 









Sommario :    VFR   VFR Marginale   IFR   IFR Intensivo   IFR Molto Intensivo
Visibilità : 
Base nubi : 
>= 8 km
>= 3000ft
5 / 8 km
1000 / 3000 ft
1500m / 5 km
500 / 1000 ft
800 / 1500m
200 / 500 ft
< 800m
< 200 ft
Simboli :   Temporali  Nebbia  Neve Forte  Precipitazioni Forti  Vento > 20 kt






- Altitudine del aeroporto : 748 ft
- Codice IATA : CLT


KCLT - Charlotte Douglas International

ULTIMO METAR :
  • 151552Z 22003KT 10SM FEW150 11/03 A3011 RMK AO2 SLP197 T01060033 $

METARs OBSOLETI :
  • 151452Z COR 26004KT 10SM FEW150 08/03 A3010 RMK AO2 SLP194 T00780028 51026 $
  • 151352Z 25003KT 10SM CLR 05/03 A3008 RMK AO2 SLP187 T00500028 $

TAF KCLT
Valido dal 15 a 16 ore il 16 a 18 ore UTC


151558Z 1516/1618 22006KT P6SM FEW150
FM160000 18004KT P6SM BKN250
FM160800 19004KT P6SM SCT120 BKN250
FM161500 21005KT P6SM SCT060 BKN120



MetMap, La meteo Aeronautica in un colpo d'occhio ! - Copyright ORBIFLY Dicembre 2007 - Disclaimer

ORBIFLY MET'MAP TEAM :

Programmazione e sviluppo : Alexandra Zaïnal
Concezione : Baudouin d'Aumeries
Aiuto per la programmazione : Marc-Olivier Méhu
Supporto tecnico e logistico : Manuel Goepfert
Aiuto per la traduzione : Arnaldo La Scala

Contatto : metmap@orbifly.com




FONTI E CREDITI :

   NOAA       Earth
Advisory